aviador You're here:

YSRI Decoded Metar

RICHMOND in AUSTRALIA
Report Time2018-05-20 19:00:00
UTC Time2018-05-20 19:40:52
Flight Rules vfr VFR
Wind070° at 03 kt
W.Decomp.*RWY 10: 2.2 kt HW 2 kt LCW
W.Rank070° ranks 2
Current wind is below 070° avg. (5.6)
Visibility9999 m
Phenomena:N/A
Clouds:N/A
CeilingNone
Temp06°C (ISA -9)
Dew Point06°C (100% RH)
AAT4.0°C
QNH1020 hPa
Density Alt-1,112 ft
Elevation69 ft
Report Wrong Elevation
Raw Report
YSRI 201900Z AUTO 07003KT 9999 // NCD 06/06 Q1020=

Extra information for YSRI:More info

Metar Taf Metar & Taf Last 4 Metars F.Rules Stats Wind Profile Meteogram Temp Stats Airport Information Weather charts Add Link Nearby VenuesMetar ALERT Operation Metar Decoded Social comments